PWSweather.com
Personal Weather Stations
Station Observations
STWO1
East Side, Stillwater, OK 74075

East SideStillwater, OK 74075

Lat: 36.1242949, Lon: -97.044042

Elevation: 942

Station Type: Davis VP2

http://stillwaterweather.com

High Low Average
Temperature 73.4°F23.0°F 39.5°F4.2°F 56.8°F13.8°F
Dew Point 56.2°F13.4°F 37.1°F2.8°F 47.1°F8.4°F
Winds 13.8 mph SE22.2 mph SE Calm Calm 4.6 mph 7.4 mph
Wind Gusts 23.0 mph37.0 mph -- 7.6 mph12.2 mph
Humidity 93% 47% 73%
Pressure 29.93 in1013.50 in 29.65 in1004.10 in -
Precipitation 0.00 in0.00 in - -
Hour Temp Dew Point Humidity Winds Wind Gusts Pressure Precip Precip Rate Daily Precip Total
12:00 AM 44.6°F7.0°C 40.4°F4.7°C 85% Calm Calm -- 29.92 in1013.2 mb - 0.00 in0.0 mm 0.00 in0.0 mm
12:10 AM 44.2°F6.8°C 40.3°F4.6°C 86% Calm Calm -- 29.92 in1013.2 mb - 0.00 in0.0 mm 0.00 in0.0 mm
12:20 AM 44.0°F6.7°C 40.1°F4.5°C 86% Calm Calm -- 29.92 in1013.2 mb - 0.00 in0.0 mm 0.00 in0.0 mm
12:30 AM 44.0°F6.7°C 40.4°F4.7°C 87% Calm Calm -- 29.91 in1012.9 mb - 0.00 in0.0 mm 0.00 in0.0 mm
12:40 AM 43.7°F6.5°C 40.1°F4.5°C 87% Calm Calm -- 29.91 in1012.9 mb - 0.00 in0.0 mm 0.00 in0.0 mm
12:50 AM 43.7°F6.5°C 40.4°F4.7°C 88% Calm Calm -- 29.91 in1012.9 mb - 0.00 in0.0 mm 0.00 in0.0 mm
01:00 AM 43.8°F6.6°C 40.5°F4.7°C 88% Calm Calm -- 29.91 in1012.9 mb - 0.00 in0.0 mm 0.00 in0.0 mm
01:10 AM 43.9°F6.6°C 40.6°F4.8°C 88% Calm Calm -- 29.91 in1012.9 mb - 0.00 in0.0 mm 0.00 in0.0 mm
01:20 AM 43.7°F6.5°C 40.4°F4.7°C 88% Calm Calm -- 29.91 in1012.9 mb - 0.00 in0.0 mm 0.00 in0.0 mm
01:30 AM 43.4°F6.3°C 40.1°F4.5°C 88% Calm Calm -- 29.92 in1013.2 mb - 0.00 in0.0 mm 0.00 in0.0 mm
01:40 AM 43.2°F6.2°C 39.9°F4.4°C 88% Calm Calm -- 29.91 in1012.9 mb - 0.00 in0.0 mm 0.00 in0.0 mm
01:50 AM 42.9°F6.1°C 39.6°F4.2°C 88% Calm Calm -- 29.91 in1012.9 mb - 0.00 in0.0 mm 0.00 in0.0 mm
02:00 AM 42.5°F5.8°C 39.2°F4.0°C 88% Calm Calm -- 29.92 in1013.2 mb - 0.00 in0.0 mm 0.00 in0.0 mm
02:10 AM 42.2°F5.7°C 39.2°F4.0°C 89% Calm Calm -- 29.92 in1013.2 mb - 0.00 in0.0 mm 0.00 in0.0 mm
02:20 AM 42.0°F5.6°C 39.0°F3.9°C 89% Calm Calm -- 29.93 in1013.5 mb - 0.00 in0.0 mm 0.00 in0.0 mm
02:30 AM 42.1°F5.6°C 39.1°F3.9°C 89% Calm Calm -- 29.93 in1013.5 mb - 0.00 in0.0 mm 0.00 in0.0 mm
02:40 AM 42.0°F5.6°C 39.0°F3.9°C 89% Calm Calm -- 29.93 in1013.5 mb - 0.00 in0.0 mm 0.00 in0.0 mm
02:50 AM 41.8°F5.4°C 38.8°F3.8°C 89% Calm Calm -- 29.93 in1013.5 mb - 0.00 in0.0 mm 0.00 in0.0 mm
03:00 AM 41.9°F5.5°C 39.2°F4.0°C 90% Calm Calm -- 29.93 in1013.5 mb - 0.00 in0.0 mm 0.00 in0.0 mm
03:10 AM 42.0°F5.6°C 39.3°F4.1°C 90% Calm Calm -- 29.92 in1013.2 mb - 0.00 in0.0 mm 0.00 in0.0 mm
03:20 AM 42.0°F5.6°C 39.3°F4.1°C 90% Calm Calm -- 29.92 in1013.2 mb - 0.00 in0.0 mm 0.00 in0.0 mm
03:30 AM 41.9°F5.5°C 39.2°F4.0°C 90% Calm Calm -- 29.92 in1013.2 mb - 0.00 in0.0 mm 0.00 in0.0 mm
03:40 AM 41.5°F5.3°C 38.8°F3.8°C 90% Calm Calm -- 29.91 in1012.9 mb - 0.00 in0.0 mm 0.00 in0.0 mm
03:50 AM 41.2°F5.1°C 38.5°F3.6°C 90% Calm Calm -- 29.91 in1012.9 mb - 0.00 in0.0 mm 0.00 in0.0 mm
04:00 AM 41.0°F5.0°C 38.3°F3.5°C 90% Calm Calm -- 29.91 in1012.9 mb - 0.00 in0.0 mm 0.00 in0.0 mm
04:10 AM 41.2°F5.1°C 38.7°F3.7°C 91% Calm Calm -- 29.90 in1012.5 mb - 0.00 in0.0 mm 0.00 in0.0 mm
04:20 AM 41.7°F5.4°C 39.3°F4.1°C 91% 1.2 mph NNW1.9 kmh NNW 2.3 mph3.7 kmh 29.89 in1012.2 mb - 0.00 in0.0 mm 0.00 in0.0 mm
04:30 AM 41.5°F5.3°C 39.1°F3.9°C 91% Calm Calm -- 29.90 in1012.5 mb - 0.00 in0.0 mm 0.00 in0.0 mm
04:40 AM 41.3°F5.2°C 38.8°F3.8°C 91% Calm Calm -- 29.90 in1012.5 mb - 0.00 in0.0 mm 0.00 in0.0 mm
04:50 AM 40.8°F4.9°C 38.4°F3.6°C 91% Calm Calm -- 29.90 in1012.5 mb - 0.00 in0.0 mm 0.00 in0.0 mm
05:00 AM 40.4°F4.7°C 38.0°F3.3°C 91% Calm Calm -- 29.90 in1012.5 mb - 0.00 in0.0 mm 0.00 in0.0 mm
05:10 AM 40.4°F4.7°C 38.0°F3.3°C 91% Calm Calm -- 29.90 in1012.5 mb - 0.00 in0.0 mm 0.00 in0.0 mm
05:20 AM 40.2°F4.6°C 37.8°F3.2°C 91% Calm Calm -- 29.90 in1012.5 mb - 0.00 in0.0 mm 0.00 in0.0 mm
05:30 AM 40.0°F4.4°C 37.6°F3.1°C 91% Calm Calm -- 29.90 in1012.5 mb - 0.00 in0.0 mm 0.00 in0.0 mm
05:40 AM 39.8°F4.3°C 37.4°F3.0°C 91% Calm Calm -- 29.90 in1012.5 mb - 0.00 in0.0 mm 0.00 in0.0 mm
05:50 AM 39.7°F4.3°C 37.3°F2.9°C 91% Calm Calm -- 29.90 in1012.5 mb - 0.00 in0.0 mm 0.00 in0.0 mm
06:00 AM 40.0°F4.4°C 37.6°F3.1°C 91% Calm Calm -- 29.89 in1012.2 mb - 0.00 in0.0 mm 0.00 in0.0 mm
06:10 AM 40.2°F4.6°C 37.8°F3.2°C 91% 1.2 mph NE1.9 kmh NE 2.3 mph3.7 kmh 29.89 in1012.2 mb - 0.00 in0.0 mm 0.00 in0.0 mm
06:20 AM 40.5°F4.7°C 38.1°F3.4°C 91% Calm Calm -- 29.90 in1012.5 mb - 0.00 in0.0 mm 0.00 in0.0 mm
06:30 AM 40.2°F4.6°C 37.8°F3.2°C 91% Calm Calm -- 29.89 in1012.2 mb - 0.00 in0.0 mm 0.00 in0.0 mm
06:40 AM 40.2°F4.6°C 37.8°F3.2°C 91% Calm Calm -- 29.90 in1012.5 mb - 0.00 in0.0 mm 0.00 in0.0 mm
06:50 AM 39.8°F4.3°C 37.4°F3.0°C 91% Calm Calm -- 29.91 in1012.9 mb - 0.00 in0.0 mm 0.00 in0.0 mm
07:00 AM 39.5°F4.2°C 37.1°F2.8°C 91% Calm Calm -- 29.91 in1012.9 mb - 0.00 in0.0 mm 0.00 in0.0 mm
07:10 AM 39.7°F4.3°C 37.6°F3.1°C 92% 1.2 mph NE1.9 kmh NE 2.3 mph3.7 kmh 29.91 in1012.9 mb - 0.00 in0.0 mm 0.00 in0.0 mm
07:20 AM 40.0°F4.4°C 37.8°F3.2°C 92% Calm Calm -- 29.91 in1012.9 mb - 0.00 in0.0 mm 0.00 in0.0 mm
07:30 AM 40.0°F4.4°C 37.9°F3.3°C 92% Calm Calm 2.3 mph3.7 kmh 29.91 in1012.9 mb - 0.00 in0.0 mm 0.00 in0.0 mm
07:40 AM 40.1°F4.5°C 38.0°F3.3°C 92% Calm Calm -- 29.91 in1012.9 mb - 0.00 in0.0 mm 0.00 in0.0 mm
07:50 AM 40.1°F4.5°C 37.9°F3.3°C 92% Calm Calm -- 29.92 in1013.2 mb - 0.00 in0.0 mm 0.00 in0.0 mm
08:00 AM 40.3°F4.6°C 38.1°F3.4°C 92% Calm Calm -- 29.92 in1013.2 mb - 0.00 in0.0 mm 0.00 in0.0 mm
08:10 AM 40.8°F4.9°C 38.7°F3.7°C 92% Calm Calm -- 29.93 in1013.5 mb - 0.00 in0.0 mm 0.00 in0.0 mm
08:20 AM 41.5°F5.3°C 39.3°F4.1°C 92% Calm Calm 2.3 mph3.7 kmh 29.93 in1013.5 mb - 0.00 in0.0 mm 0.00 in0.0 mm
08:30 AM 42.7°F5.9°C 40.5°F4.7°C 92% Calm Calm 2.3 mph3.7 kmh 29.92 in1013.2 mb - 0.00 in0.0 mm 0.00 in0.0 mm
08:40 AM 43.3°F6.3°C 41.1°F5.1°C 92% 1.2 mph NE1.9 kmh NE 3.5 mph5.6 kmh 29.93 in1013.5 mb - 0.00 in0.0 mm 0.00 in0.0 mm
08:50 AM 44.0°F6.7°C 41.9°F5.5°C 92% 1.2 mph NE1.9 kmh NE 2.3 mph3.7 kmh 29.93 in1013.5 mb - 0.00 in0.0 mm 0.00 in0.0 mm
09:00 AM 45.5°F7.5°C 43.6°F6.4°C 93% 1.2 mph SE1.9 kmh SE 4.6 mph7.4 kmh 29.93 in1013.5 mb - 0.00 in0.0 mm 0.00 in0.0 mm
09:10 AM 47.0°F8.3°C 44.8°F7.1°C 92% 1.2 mph SE1.9 kmh SE 3.5 mph5.6 kmh 29.92 in1013.2 mb - 0.00 in0.0 mm 0.00 in0.0 mm
09:20 AM 48.1°F8.9°C 45.9°F7.7°C 92% 3.5 mph SE5.6 kmh SE 6.9 mph11.1 kmh 29.92 in1013.2 mb - 0.00 in0.0 mm 0.00 in0.0 mm
09:30 AM 48.6°F9.2°C 45.8°F7.7°C 90% 2.3 mph E3.7 kmh E 3.5 mph5.6 kmh 29.92 in1013.2 mb - 0.00 in0.0 mm 0.00 in0.0 mm
09:40 AM 49.4°F9.7°C 46.3°F7.9°C 89% 5.8 mph SE9.3 kmh SE 11.5 mph18.5 kmh 29.92 in1013.2 mb - 0.00 in0.0 mm 0.00 in0.0 mm
09:50 AM 50.5°F10.3°C 46.8°F8.2°C 87% 3.5 mph E5.6 kmh E 6.9 mph11.1 kmh 29.92 in1013.2 mb - 0.00 in0.0 mm 0.00 in0.0 mm
10:00 AM 52.3°F11.3°C 47.6°F8.7°C 84% 4.6 mph E7.4 kmh E 9.2 mph14.8 kmh 29.91 in1012.9 mb - 0.00 in0.0 mm 0.00 in0.0 mm
10:10 AM 53.0°F11.7°C 47.3°F8.5°C 81% 3.5 mph ESE5.6 kmh ESE 6.9 mph11.1 kmh 29.91 in1012.9 mb - 0.00 in0.0 mm 0.00 in0.0 mm
10:20 AM 54.1°F12.3°C 47.7°F8.7°C 79% 3.5 mph SE5.6 kmh SE 8.1 mph13.0 kmh 29.91 in1012.9 mb - 0.00 in0.0 mm 0.00 in0.0 mm
10:30 AM 55.1°F12.8°C 47.3°F8.5°C 75% 4.6 mph SSE7.4 kmh SSE 8.1 mph13.0 kmh 29.91 in1012.9 mb - 0.00 in0.0 mm 0.00 in0.0 mm
10:40 AM 55.5°F13.1°C 47.3°F8.5°C 74% 3.5 mph ESE5.6 kmh ESE 3.5 mph5.6 kmh 29.89 in1012.2 mb - 0.00 in0.0 mm 0.00 in0.0 mm
10:50 AM 56.2°F13.4°C 47.7°F8.7°C 73% 6.9 mph E11.1 kmh E 9.2 mph14.8 kmh 29.89 in1012.2 mb - 0.00 in0.0 mm 0.00 in0.0 mm
11:00 AM 57.2°F14.0°C 48.3°F9.1°C 72% 5.8 mph E9.3 kmh E 8.1 mph13.0 kmh 29.89 in1012.2 mb - 0.00 in0.0 mm 0.00 in0.0 mm
11:10 AM 57.7°F14.3°C 48.7°F9.3°C 72% 4.6 mph SE7.4 kmh SE 10.4 mph16.7 kmh 29.89 in1012.2 mb - 0.00 in0.0 mm 0.00 in0.0 mm
11:20 AM 57.9°F14.4°C 48.2°F9.0°C 70% 5.8 mph SE9.3 kmh SE 9.2 mph14.8 kmh 29.89 in1012.2 mb - 0.00 in0.0 mm 0.00 in0.0 mm
11:30 AM 59.0°F15.0°C 48.8°F9.3°C 69% 8.1 mph SE13.0 kmh SE 10.4 mph16.7 kmh 29.88 in1011.9 mb - 0.00 in0.0 mm 0.00 in0.0 mm
11:40 AM 59.6°F15.3°C 49.0°F9.4°C 68% 8.1 mph SE13.0 kmh SE 11.5 mph18.5 kmh 29.88 in1011.9 mb - 0.00 in0.0 mm 0.00 in0.0 mm
11:50 AM 60.5°F15.8°C 49.5°F9.7°C 67% 8.1 mph SE13.0 kmh SE 11.5 mph18.5 kmh 29.87 in1011.5 mb - 0.00 in0.0 mm 0.00 in0.0 mm
12:00 PM 61.7°F16.5°C 49.8°F9.9°C 65% 8.1 mph SE13.0 kmh SE 11.5 mph18.5 kmh 29.86 in1011.2 mb - 0.00 in0.0 mm 0.00 in0.0 mm
12:10 PM 63.1°F17.3°C 50.3°F10.2°C 63% 6.9 mph ESE11.1 kmh ESE 11.5 mph18.5 kmh 29.85 in1010.8 mb - 0.00 in0.0 mm 0.00 in0.0 mm
12:20 PM 64.1°F17.8°C 50.4°F10.2°C 61% 9.2 mph SE14.8 kmh SE 15.0 mph24.1 kmh 29.84 in1010.5 mb - 0.00 in0.0 mm 0.00 in0.0 mm
12:30 PM 66.1°F18.9°C 51.3°F10.7°C 59% 6.9 mph SE11.1 kmh SE 15.0 mph24.1 kmh 29.84 in1010.5 mb - 0.00 in0.0 mm 0.00 in0.0 mm
12:40 PM 65.9°F18.8°C 50.2°F10.1°C 57% 11.5 mph SE18.5 kmh SE 18.4 mph29.6 kmh 29.83 in1010.2 mb - 0.00 in0.0 mm 0.00 in0.0 mm
12:50 PM 66.9°F19.4°C 51.2°F10.7°C 57% 9.2 mph SE14.8 kmh SE 15.0 mph24.1 kmh 29.82 in1009.8 mb - 0.00 in0.0 mm 0.00 in0.0 mm
01:00 PM 68.0°F20.0°C 50.8°F10.4°C 54% 8.1 mph SE13.0 kmh SE 15.0 mph24.1 kmh 29.81 in1009.5 mb - 0.00 in0.0 mm 0.00 in0.0 mm
01:10 PM 69.3°F20.7°C 50.9°F10.5°C 52% 9.2 mph SE14.8 kmh SE 13.8 mph22.2 kmh 29.80 in1009.1 mb - 0.00 in0.0 mm 0.00 in0.0 mm
01:20 PM 70.3°F21.3°C 51.3°F10.7°C 51% 8.1 mph SE13.0 kmh SE 17.3 mph27.8 kmh 29.79 in1008.8 mb - 0.00 in0.0 mm 0.00 in0.0 mm
01:30 PM 70.3°F21.3°C 51.3°F10.7°C 51% 9.2 mph SE14.8 kmh SE 11.5 mph18.5 kmh 29.78 in1008.5 mb - 0.00 in0.0 mm 0.00 in0.0 mm
01:40 PM 71.3°F21.8°C 51.7°F10.9°C 50% 12.7 mph SE20.4 kmh SE 19.6 mph31.5 kmh 29.78 in1008.5 mb - 0.00 in0.0 mm 0.00 in0.0 mm
01:50 PM 70.5°F21.4°C 51.5°F10.8°C 51% 10.4 mph SE16.7 kmh SE 19.6 mph31.5 kmh 29.77 in1008.1 mb - 0.00 in0.0 mm 0.00 in0.0 mm
02:00 PM 70.2°F21.2°C 51.3°F10.7°C 51% 10.4 mph SSE16.7 kmh SSE 18.4 mph29.6 kmh 29.77 in1008.1 mb - 0.00 in0.0 mm 0.00 in0.0 mm
02:10 PM 72.3°F22.4°C 52.1°F11.2°C 49% 10.4 mph SE16.7 kmh SE 15.0 mph24.1 kmh 29.77 in1008.1 mb - 0.00 in0.0 mm 0.00 in0.0 mm
02:20 PM 71.6°F22.0°C 52.0°F11.1°C 50% 11.5 mph SE18.5 kmh SE 20.7 mph33.3 kmh 29.76 in1007.8 mb - 0.00 in0.0 mm 0.00 in0.0 mm
02:30 PM 71.5°F21.9°C 51.3°F10.7°C 49% 12.7 mph SE20.4 kmh SE 16.1 mph25.9 kmh 29.75 in1007.5 mb - 0.00 in0.0 mm 0.00 in0.0 mm
02:40 PM 71.4°F21.9°C 51.8°F11.0°C 50% 9.2 mph SE14.8 kmh SE 13.8 mph22.2 kmh 29.74 in1007.1 mb - 0.00 in0.0 mm 0.00 in0.0 mm
02:50 PM 72.7°F22.6°C 51.3°F10.7°C 47% 11.5 mph SE18.5 kmh SE 17.3 mph27.8 kmh 29.75 in1007.5 mb - 0.00 in0.0 mm 0.00 in0.0 mm
03:00 PM 72.6°F22.6°C 51.2°F10.7°C 47% 13.8 mph SE22.2 kmh SE 23.0 mph37.0 kmh 29.74 in1007.1 mb - 0.00 in0.0 mm 0.00 in0.0 mm
03:10 PM 72.6°F22.6°C 51.2°F10.7°C 47% 9.2 mph SE14.8 kmh SE 19.6 mph31.5 kmh 29.74 in1007.1 mb - 0.00 in0.0 mm 0.00 in0.0 mm
03:20 PM 72.3°F22.4°C 50.9°F10.5°C 47% 12.7 mph SSE20.4 kmh SSE 15.0 mph24.1 kmh 29.74 in1007.1 mb - 0.00 in0.0 mm 0.00 in0.0 mm
03:30 PM 72.4°F22.4°C 51.0°F10.6°C 47% 11.5 mph SSE18.5 kmh SSE 17.3 mph27.8 kmh 29.73 in1006.8 mb - 0.00 in0.0 mm 0.00 in0.0 mm
03:40 PM 71.8°F22.1°C 51.0°F10.6°C 48% 8.1 mph SSE13.0 kmh SSE 11.5 mph18.5 kmh 29.71 in1006.1 mb - 0.00 in0.0 mm 0.00 in0.0 mm
03:50 PM 71.8°F22.1°C 51.0°F10.6°C 48% 10.4 mph S16.7 kmh S 15.0 mph24.1 kmh 29.73 in1006.8 mb - 0.00 in0.0 mm 0.00 in0.0 mm
04:00 PM 71.8°F22.1°C 51.6°F10.9°C 49% 8.1 mph S13.0 kmh S 11.5 mph18.5 kmh 29.73 in1006.8 mb - 0.00 in0.0 mm 0.00 in0.0 mm
04:10 PM 71.6°F22.0°C 51.4°F10.8°C 49% 9.2 mph SE14.8 kmh SE 18.4 mph29.6 kmh 29.73 in1006.8 mb - 0.00 in0.0 mm 0.00 in0.0 mm
04:20 PM 71.4°F21.9°C 51.8°F11.0°C 50% 10.4 mph S16.7 kmh S 17.3 mph27.8 kmh 29.73 in1006.8 mb - 0.00 in0.0 mm 0.00 in0.0 mm
04:30 PM 71.3°F21.8°C 52.2°F11.2°C 51% 6.9 mph SE11.1 kmh SE 12.7 mph20.4 kmh 29.73 in1006.8 mb - 0.00 in0.0 mm 0.00 in0.0 mm
04:40 PM 71.3°F21.8°C 52.8°F11.6°C 52% 6.9 mph S11.1 kmh S 16.1 mph25.9 kmh 29.73 in1006.8 mb - 0.00 in0.0 mm 0.00 in0.0 mm
04:50 PM 72.6°F22.6°C 53.4°F11.9°C 51% 9.2 mph SSE14.8 kmh SSE 12.7 mph20.4 kmh 29.72 in1006.4 mb - 0.00 in0.0 mm 0.00 in0.0 mm
05:00 PM 72.5°F22.5°C 52.8°F11.6°C 50% 10.4 mph SSE16.7 kmh SSE 16.1 mph25.9 kmh 29.71 in1006.1 mb - 0.00 in0.0 mm 0.00 in0.0 mm
05:10 PM 72.6°F22.6°C 52.9°F11.6°C 50% 12.7 mph SSE20.4 kmh SSE 20.7 mph33.3 kmh 29.71 in1006.1 mb - 0.00 in0.0 mm 0.00 in0.0 mm
05:20 PM 72.5°F22.5°C 53.4°F11.9°C 51% 11.5 mph SE18.5 kmh SE 18.4 mph29.6 kmh 29.71 in1006.1 mb - 0.00 in0.0 mm 0.00 in0.0 mm
05:30 PM 73.0°F22.8°C 53.3°F11.8°C 50% 9.2 mph SE14.8 kmh SE 13.8 mph22.2 kmh 29.70 in1005.8 mb - 0.00 in0.0 mm 0.00 in0.0 mm
05:40 PM 73.4°F23.0°C 53.1°F11.7°C 49% 8.1 mph SSE13.0 kmh SSE 11.5 mph18.5 kmh 29.70 in1005.8 mb - 0.00 in0.0 mm 0.00 in0.0 mm
05:50 PM 73.1°F22.8°C 52.8°F11.6°C 49% 10.4 mph SSE16.7 kmh SSE 15.0 mph24.1 kmh 29.69 in1005.4 mb - 0.00 in0.0 mm 0.00 in0.0 mm
06:00 PM 73.1°F22.8°C 53.4°F11.9°C 50% 8.1 mph SE13.0 kmh SE 13.8 mph22.2 kmh 29.68 in1005.1 mb - 0.00 in0.0 mm 0.00 in0.0 mm
06:10 PM 73.3°F22.9°C 53.5°F11.9°C 50% 11.5 mph SSE18.5 kmh SSE 16.1 mph25.9 kmh 29.67 in1004.7 mb - 0.00 in0.0 mm 0.00 in0.0 mm
06:20 PM 73.4°F23.0°C 53.6°F12.0°C 50% 8.1 mph SE13.0 kmh SE 13.8 mph22.2 kmh 29.67 in1004.7 mb - 0.00 in0.0 mm 0.00 in0.0 mm
06:30 PM 73.2°F22.9°C 54.0°F12.2°C 51% 9.2 mph SSE14.8 kmh SSE 13.8 mph22.2 kmh 29.67 in1004.7 mb - 0.00 in0.0 mm 0.00 in0.0 mm
06:40 PM 73.1°F22.8°C 54.4°F12.4°C 52% 8.1 mph SSE13.0 kmh SSE 16.1 mph25.9 kmh 29.69 in1005.4 mb - 0.00 in0.0 mm 0.00 in0.0 mm
06:50 PM 73.2°F22.9°C 54.0°F12.2°C 51% 11.5 mph SE18.5 kmh SE 16.1 mph25.9 kmh 29.68 in1005.1 mb - 0.00 in0.0 mm 0.00 in0.0 mm
07:00 PM 73.0°F22.8°C 54.3°F12.4°C 52% 8.1 mph SE13.0 kmh SE 15.0 mph24.1 kmh 29.68 in1005.1 mb - 0.00 in0.0 mm 0.00 in0.0 mm
07:10 PM 72.7°F22.6°C 54.0°F12.2°C 52% 9.2 mph SE14.8 kmh SE 13.8 mph22.2 kmh 29.67 in1004.7 mb - 0.00 in0.0 mm 0.00 in0.0 mm
07:20 PM 72.2°F22.3°C 53.6°F12.0°C 52% 9.2 mph SE14.8 kmh SE 12.7 mph20.4 kmh 29.68 in1005.1 mb - 0.00 in0.0 mm 0.00 in0.0 mm
07:30 PM 71.4°F21.9°C 53.4°F11.9°C 53% 9.2 mph S14.8 kmh S 18.4 mph29.6 kmh 29.67 in1004.7 mb - 0.00 in0.0 mm 0.00 in0.0 mm
07:40 PM 70.4°F21.3°C 53.4°F11.9°C 55% 9.2 mph SE14.8 kmh SE 12.7 mph20.4 kmh 29.67 in1004.7 mb - 0.00 in0.0 mm 0.00 in0.0 mm
07:50 PM 69.4°F20.8°C 54.0°F12.2°C 58% 8.1 mph SE13.0 kmh SE 11.5 mph18.5 kmh 29.66 in1004.4 mb - 0.00 in0.0 mm 0.00 in0.0 mm
08:00 PM 68.6°F20.3°C 54.6°F12.6°C 61% 6.9 mph SSE11.1 kmh SSE 10.4 mph16.7 kmh 29.66 in1004.4 mb - 0.00 in0.0 mm 0.00 in0.0 mm
08:10 PM 68.1°F20.1°C 54.6°F12.6°C 62% 4.6 mph SE7.4 kmh SE 10.4 mph16.7 kmh 29.65 in1004.1 mb - 0.00 in0.0 mm 0.00 in0.0 mm
08:20 PM 67.6°F19.8°C 54.6°F12.6°C 63% 9.2 mph SE14.8 kmh SE 13.8 mph22.2 kmh 29.66 in1004.4 mb - 0.00 in0.0 mm 0.00 in0.0 mm
08:30 PM 67.3°F19.6°C 54.3°F12.4°C 63% 9.2 mph SE14.8 kmh SE 12.7 mph20.4 kmh 29.66 in1004.4 mb - 0.00 in0.0 mm 0.00 in0.0 mm
08:40 PM 67.2°F19.6°C 54.2°F12.3°C 63% 12.7 mph SE20.4 kmh SE 19.6 mph31.5 kmh 29.66 in1004.4 mb - 0.00 in0.0 mm 0.00 in0.0 mm
08:50 PM 66.8°F19.3°C 54.2°F12.3°C 64% 8.1 mph SE13.0 kmh SE 12.7 mph20.4 kmh 29.66 in1004.4 mb - 0.00 in0.0 mm 0.00 in0.0 mm
09:00 PM 66.3°F19.1°C 54.6°F12.6°C 66% 8.1 mph SE13.0 kmh SE 11.5 mph18.5 kmh 29.66 in1004.4 mb - 0.00 in0.0 mm 0.00 in0.0 mm
09:10 PM 65.9°F18.8°C 55.0°F12.8°C 68% 5.8 mph SE9.3 kmh SE 11.5 mph18.5 kmh 29.66 in1004.4 mb - 0.00 in0.0 mm 0.00 in0.0 mm
09:20 PM 65.6°F18.7°C 55.5°F13.1°C 70% 4.6 mph SE7.4 kmh SE 6.9 mph11.1 kmh 29.66 in1004.4 mb - 0.00 in0.0 mm 0.00 in0.0 mm
09:30 PM 65.2°F18.4°C 55.9°F13.3°C 72% 6.9 mph SE11.1 kmh SE 9.2 mph14.8 kmh 29.66 in1004.4 mb - 0.00 in0.0 mm 0.00 in0.0 mm
09:40 PM 64.9°F18.3°C 56.0°F13.3°C 73% 8.1 mph SE13.0 kmh SE 13.8 mph22.2 kmh 29.67 in1004.7 mb - 0.00 in0.0 mm 0.00 in0.0 mm
09:50 PM 64.5°F18.1°C 56.0°F13.3°C 74% 4.6 mph SE7.4 kmh SE 9.2 mph14.8 kmh 29.68 in1005.1 mb - 0.00 in0.0 mm 0.00 in0.0 mm
10:00 PM 64.3°F17.9°C 56.2°F13.4°C 75% 5.8 mph ESE9.3 kmh ESE 9.2 mph14.8 kmh 29.69 in1005.4 mb - 0.00 in0.0 mm 0.00 in0.0 mm
10:10 PM 64.0°F17.8°C 56.2°F13.4°C 76% 2.3 mph E3.7 kmh E 5.8 mph9.3 kmh 29.69 in1005.4 mb - 0.00 in0.0 mm 0.00 in0.0 mm
10:20 PM 63.8°F17.7°C 56.1°F13.4°C 76% 4.6 mph ESE7.4 kmh ESE 6.9 mph11.1 kmh 29.69 in1005.4 mb - 0.00 in0.0 mm 0.00 in0.0 mm
10:30 PM 63.5°F17.5°C 55.8°F13.2°C 76% 1.2 mph SSE1.9 kmh SSE 2.3 mph3.7 kmh 29.70 in1005.8 mb - 0.00 in0.0 mm 0.00 in0.0 mm
10:40 PM 63.3°F17.4°C 56.0°F13.3°C 77% Calm Calm 3.5 mph5.6 kmh 29.70 in1005.8 mb - 0.00 in0.0 mm 0.00 in0.0 mm
10:50 PM 63.1°F17.3°C 55.8°F13.2°C 77% 2.3 mph SE3.7 kmh SE 3.5 mph5.6 kmh 29.70 in1005.8 mb - 0.00 in0.0 mm 0.00 in0.0 mm
11:00 PM 62.7°F17.1°C 55.4°F13.0°C 77% 1.2 mph SE1.9 kmh SE 2.3 mph3.7 kmh 29.70 in1005.8 mb - 0.00 in0.0 mm 0.00 in0.0 mm
11:10 PM 62.5°F16.9°C 55.5°F13.1°C 78% Calm Calm 1.2 mph1.9 kmh 29.70 in1005.8 mb - 0.00 in0.0 mm 0.00 in0.0 mm
11:20 PM 62.4°F16.9°C 55.8°F13.2°C 79% 2.3 mph NE3.7 kmh NE 3.5 mph5.6 kmh 29.72 in1006.4 mb - 0.00 in0.0 mm 0.00 in0.0 mm
11:30 PM 62.2°F16.8°C 56.0°F13.3°C 80% 1.2 mph NE1.9 kmh NE 3.5 mph5.6 kmh 29.73 in1006.8 mb - 0.00 in0.0 mm 0.00 in0.0 mm
11:40 PM 62.2°F16.8°C 55.6°F13.1°C 79% Calm Calm -- 29.72 in1006.4 mb - 0.00 in0.0 mm 0.00 in0.0 mm
11:50 PM 62.0°F16.7°C 55.4°F13.0°C 79% Calm Calm -- 29.72 in1006.4 mb - 0.00 in0.0 mm 0.00 in0.0 mm